createdAt,value
2023-01-29T00:00:10.415Z,7.75
2023-01-29T00:02:37.439Z,7.72
2023-01-29T00:05:25.478Z,8.63
2023-01-29T00:07:52.722Z,7.47
2023-01-29T00:10:19.572Z,7.88
2023-01-29T00:12:46.226Z,7.70
2023-01-29T00:15:12.840Z,8.20
2023-01-29T00:17:39.450Z,7.78
2023-01-29T00:20:06.540Z,8.48
2023-01-29T00:22:33.163Z,8.32
2023-01-29T00:24:59.848Z,8.02
2023-01-29T00:27:26.480Z,8.30
2023-01-29T00:30:09.156Z,7.32
2023-01-29T00:32:36.303Z,7.95
2023-01-29T00:35:03.394Z,7.72
2023-01-29T00:37:30.427Z,8.45
2023-01-29T00:39:57.098Z,8.60
2023-01-29T00:42:42.420Z,8.20
2023-01-29T00:45:10.675Z,8.82
2023-01-29T00:47:37.677Z,8.10
2023-01-29T00:50:07.586Z,7.85
2023-01-29T00:52:36.350Z,8.30
2023-01-29T00:55:05.625Z,7.82
2023-01-29T00:57:33.898Z,7.95
2023-01-29T01:00:01.586Z,8.30
2023-01-29T01:02:47.357Z,7.95
2023-01-29T01:05:19.700Z,7.82
2023-01-29T01:07:53.499Z,8.25
2023-01-29T01:10:32.449Z,7.70
2023-01-29T01:13:04.940Z,8.15
2023-01-29T01:15:35.004Z,7.90
2023-01-29T01:18:03.101Z,8.05
2023-01-29T01:20:33.139Z,7.55
2023-01-29T01:22:59.843Z,8.05
2023-01-29T01:25:27.459Z,8.35
2023-01-29T01:27:56.067Z,8.10
2023-01-29T01:30:24.379Z,7.90
2023-01-29T01:32:51.279Z,8.50
2023-01-29T01:35:18.167Z,7.70
2023-01-29T01:37:44.861Z,7.65
2023-01-29T01:40:23.231Z,8.60
2023-01-29T01:42:57.884Z,7.95
2023-01-29T01:45:36.030Z,8.43
2023-01-29T01:48:02.712Z,8.30
2023-01-29T01:51:03.852Z,7.57
2023-01-29T01:53:39.069Z,8.50
2023-01-29T01:56:14.751Z,8.00
2023-01-29T01:58:47.005Z,7.40
2023-01-29T02:01:13.888Z,7.65
2023-01-29T02:04:14.026Z,8.45
2023-01-29T02:07:00.003Z,7.60
2023-01-29T02:09:38.807Z,7.65
2023-01-29T02:12:07.002Z,7.05
2023-01-29T02:14:38.790Z,7.53
2023-01-29T02:17:24.208Z,7.43
2023-01-29T02:19:57.057Z,7.50
2023-01-29T02:22:47.095Z,7.82
2023-01-29T02:25:32.257Z,7.53
2023-01-29T02:28:23.583Z,7.53
2023-01-29T02:31:23.683Z,7.82
2023-01-29T02:34:16.736Z,8.13
2023-01-29T02:36:51.888Z,8.90
2023-01-29T02:39:36.350Z,8.20
2023-01-29T02:42:27.797Z,7.65
2023-01-29T02:45:05.074Z,8.05
2023-01-29T02:48:09.965Z,8.15
2023-01-29T02:50:54.310Z,7.85
2023-01-29T02:53:32.533Z,8.30
2023-01-29T02:56:36.907Z,8.68
2023-01-29T02:59:14.605Z,7.75
2023-01-29T03:01:57.636Z,7.55
2023-01-29T03:04:32.977Z,8.63
2023-01-29T03:07:22.465Z,8.55
2023-01-29T03:09:52.969Z,7.97
2023-01-29T03:12:33.862Z,7.80
2023-01-29T03:15:14.978Z,8.05
2023-01-29T03:17:51.077Z,7.55
2023-01-29T03:20:22.635Z,8.13
2023-01-29T03:22:55.034Z,8.57
2023-01-29T03:25:42.584Z,8.18
2023-01-29T03:28:33.543Z,8.13
2023-01-29T03:31:24.653Z,8.43
2023-01-29T03:34:00.090Z,8.77
2023-01-29T03:36:39.833Z,8.50
2023-01-29T03:39:09.426Z,8.15
2023-01-29T03:41:46.219Z,8.25
2023-01-29T03:44:31.130Z,8.20
2023-01-29T03:47:08.723Z,8.50
2023-01-29T03:49:54.945Z,7.40
2023-01-29T03:52:47.459Z,7.80
2023-01-29T03:55:24.623Z,8.20
2023-01-29T03:58:04.824Z,8.00
2023-01-29T04:01:11.613Z,7.85
2023-01-29T04:03:43.927Z,7.82
2023-01-29T04:06:24.100Z,8.40
2023-01-29T04:08:59.603Z,8.23
2023-01-29T04:11:28.633Z,8.30
2023-01-29T04:13:57.091Z,8.48
2023-01-29T04:16:35.607Z,8.95
2023-01-29T04:19:02.677Z,8.60
2023-01-29T04:21:31.850Z,8.40
2023-01-29T04:23:58.553Z,8.15
2023-01-29T04:26:28.335Z,8.45
2023-01-29T04:29:04.207Z,9.15
2023-01-29T04:31:44.278Z,8.85
2023-01-29T04:34:33.697Z,8.60
2023-01-29T04:37:03.405Z,8.35
2023-01-29T04:39:56.411Z,8.60
2023-01-29T04:42:33.372Z,9.25
2023-01-29T04:45:18.533Z,7.97
2023-01-29T04:47:58.267Z,7.85
2023-01-29T04:50:38.031Z,7.70
2023-01-29T04:53:17.474Z,9.10
2023-01-29T04:56:20.215Z,8.38
2023-01-29T04:58:52.881Z,7.78
2023-01-29T05:01:22.369Z,8.45
2023-01-29T05:03:52.074Z,8.68
2023-01-29T05:06:19.870Z,8.23
2023-01-29T05:08:49.673Z,9.00
2023-01-29T05:11:18.504Z,7.95
2023-01-29T05:13:47.843Z,7.93
2023-01-29T05:16:25.841Z,8.10
2023-01-29T05:18:52.688Z,9.75
2023-01-29T05:21:20.767Z,7.95
2023-01-29T05:23:58.883Z,8.40
2023-01-29T05:26:44.218Z,7.70
2023-01-29T05:29:12.230Z,8.40
2023-01-29T05:31:38.924Z,7.90
2023-01-29T05:34:05.585Z,8.55
2023-01-29T05:36:32.259Z,8.82
2023-01-29T05:38:58.891Z,8.50
2023-01-29T05:41:25.522Z,8.35
2023-01-29T05:43:52.163Z,7.95
2023-01-29T05:46:18.803Z,8.45
2023-01-29T05:48:45.432Z,8.05
2023-01-29T05:51:12.200Z,8.50
2023-01-29T05:53:38.811Z,8.10
2023-01-29T05:56:05.771Z,8.18
2023-01-29T05:58:33.087Z,8.65
2023-01-29T06:01:09.021Z,8.63
2023-01-29T06:03:35.677Z,8.80
2023-01-29T06:06:02.672Z,8.65
2023-01-29T06:08:29.321Z,8.35
2023-01-29T06:10:55.998Z,8.88
2023-01-29T06:13:23.709Z,8.43
2023-01-29T06:15:50.535Z,10.48
2023-01-29T06:18:17.218Z,8.55
2023-01-29T06:20:43.852Z,8.65
2023-01-29T06:23:10.527Z,8.02
2023-01-29T06:25:37.249Z,8.60
2023-01-29T06:28:04.112Z,8.60
2023-01-29T06:30:31.860Z,8.80
2023-01-29T06:33:01.565Z,8.63
2023-01-29T06:35:28.696Z,7.63
2023-01-29T06:37:56.385Z,8.05
2023-01-29T06:40:23.077Z,8.50
2023-01-29T06:42:49.695Z,8.95
2023-01-29T06:45:16.415Z,8.73
2023-01-29T06:47:43.001Z,8.75
2023-01-29T06:50:10.397Z,9.07
2023-01-29T06:52:36.991Z,8.65
2023-01-29T06:55:03.811Z,8.57
2023-01-29T06:57:30.457Z,8.40
2023-01-29T06:59:57.191Z,9.85
2023-01-29T07:02:23.849Z,9.10
2023-01-29T07:04:50.521Z,8.43
2023-01-29T07:07:17.238Z,8.65
2023-01-29T07:09:43.868Z,9.10
2023-01-29T07:12:11.237Z,8.95
2023-01-29T07:14:37.858Z,10.10
2023-01-29T07:17:04.566Z,8.57
2023-01-29T07:19:31.208Z,9.77
2023-01-29T07:21:57.914Z,9.32
2023-01-29T07:24:24.866Z,9.77
2023-01-29T07:26:51.594Z,11.10
2023-01-29T07:29:18.235Z,10.68
2023-01-29T07:31:44.970Z,10.38
2023-01-29T07:34:11.616Z,11.18
2023-01-29T07:36:38.255Z,10.82
2023-01-29T07:39:04.899Z,11.57
2023-01-29T07:41:31.524Z,9.07
2023-01-29T07:43:58.158Z,10.00
2023-01-29T07:46:24.781Z,9.05
2023-01-29T07:48:51.404Z,10.60
2023-01-29T07:51:18.504Z,9.85
2023-01-29T07:53:45.133Z,10.23
2023-01-29T07:56:11.777Z,9.90
2023-01-29T07:58:38.472Z,10.93
2023-01-29T08:01:07.412Z,10.85
2023-01-29T08:03:34.081Z,10.65
2023-01-29T08:06:00.937Z,9.88
2023-01-29T08:08:27.575Z,10.95
2023-01-29T08:10:54.277Z,10.77
2023-01-29T08:13:21.009Z,10.65
2023-01-29T08:15:47.867Z,10.23
2023-01-29T08:18:14.977Z,9.90
2023-01-29T08:20:41.666Z,9.82
2023-01-29T08:23:13.193Z,10.20
2023-01-29T08:25:39.914Z,9.40
2023-01-29T08:28:06.617Z,10.98
2023-01-29T08:30:34.795Z,10.80
2023-01-29T08:33:02.932Z,11.98
2023-01-29T08:35:29.629Z,10.95
2023-01-29T08:38:01.420Z,12.88
2023-01-29T08:40:29.482Z,12.10
2023-01-29T08:43:09.194Z,10.60
2023-01-29T08:45:39.809Z,11.43
2023-01-29T08:48:07.058Z,11.75
2023-01-29T08:50:34.975Z,11.32
2023-01-29T08:53:07.920Z,11.18
2023-01-29T08:55:38.781Z,11.20
2023-01-29T08:58:06.990Z,11.07
2023-01-29T09:00:34.486Z,9.10
2023-01-29T09:03:01.179Z,9.20
2023-01-29T09:05:28.245Z,9.75
2023-01-29T09:07:56.972Z,9.60
2023-01-29T09:10:23.617Z,10.18
2023-01-29T09:12:50.315Z,9.95
2023-01-29T09:15:17.206Z,9.32
2023-01-29T09:17:44.144Z,9.70
2023-01-29T09:20:11.309Z,9.52
2023-01-29T09:22:38.172Z,9.32
2023-01-29T09:25:05.175Z,9.50
2023-01-29T09:27:31.814Z,10.77
2023-01-29T09:29:58.444Z,9.68
2023-01-29T09:32:52.038Z,10.02
2023-01-29T09:35:11.739Z,9.65
2023-01-29T09:37:38.383Z,9.40
2023-01-29T09:40:05.642Z,9.40
2023-01-29T09:42:50.266Z,9.68
2023-01-29T09:45:24.772Z,9.43
2023-01-29T09:47:52.120Z,10.15
2023-01-29T09:50:28.207Z,9.35
2023-01-29T09:53:00.351Z,9.60
2023-01-29T09:55:39.123Z,9.50
2023-01-29T09:58:18.443Z,8.80
2023-01-29T10:01:05.193Z,9.35
2023-01-29T10:03:58.331Z,9.43
2023-01-29T10:06:53.515Z,8.70
2023-01-29T10:09:34.123Z,8.70
2023-01-29T10:12:21.022Z,9.57
2023-01-29T10:15:04.820Z,9.00
2023-01-29T10:17:50.294Z,9.18
2023-01-29T10:20:25.957Z,9.73
2023-01-29T10:23:07.679Z,9.63
2023-01-29T10:25:39.256Z,9.68
2023-01-29T10:28:20.018Z,9.00
2023-01-29T10:30:54.356Z,9.43
2023-01-29T10:34:02.945Z,9.27
2023-01-29T10:36:38.471Z,9.90
2023-01-29T10:39:05.120Z,9.30
2023-01-29T10:41:42.097Z,8.68
2023-01-29T10:44:15.180Z,9.98
2023-01-29T10:46:53.784Z,8.80
2023-01-29T10:49:39.124Z,8.70
2023-01-29T10:52:15.419Z,9.00
2023-01-29T10:55:14.932Z,9.30
2023-01-29T10:57:49.299Z,8.93
2023-01-29T11:00:23.790Z,8.70
2023-01-29T11:02:52.064Z,8.35
2023-01-29T11:05:29.951Z,8.50
2023-01-29T11:08:08.561Z,9.15
2023-01-29T11:10:42.806Z,8.75
2023-01-29T11:13:14.346Z,8.35
2023-01-29T11:15:41.022Z,9.25
2023-01-29T11:18:14.207Z,8.52
2023-01-29T11:20:45.570Z,9.25
2023-01-29T11:23:41.681Z,9.15
2023-01-29T11:26:12.498Z,7.95
2023-01-29T11:28:39.183Z,8.25
2023-01-29T11:31:29.895Z,9.38
2023-01-29T11:34:21.828Z,8.60
2023-01-29T11:37:03.394Z,8.68
2023-01-29T11:39:32.087Z,9.65
2023-01-29T11:42:04.042Z,10.25
2023-01-29T11:44:36.943Z,8.57
2023-01-29T11:47:23.900Z,8.55
2023-01-29T11:49:59.392Z,8.35
2023-01-29T11:52:38.592Z,9.32
2023-01-29T11:55:18.706Z,9.15
2023-01-29T11:57:56.450Z,9.25
2023-01-29T12:00:26.501Z,8.93
2023-01-29T12:03:01.418Z,8.60
2023-01-29T12:05:28.375Z,8.93
2023-01-29T12:07:57.793Z,8.85
2023-01-29T12:10:34.129Z,8.02
2023-01-29T12:13:10.371Z,8.95
2023-01-29T12:15:38.331Z,8.25
2023-01-29T12:18:10.760Z,7.80
2023-01-29T12:20:58.954Z,8.20
2023-01-29T12:23:49.916Z,8.63
2023-01-29T12:26:40.118Z,8.85
2023-01-29T12:29:27.979Z,9.07
2023-01-29T12:32:14.943Z,8.30
2023-01-29T12:34:53.159Z,9.05
2023-01-29T12:37:42.764Z,8.88
2023-01-29T12:40:16.089Z,8.60
2023-01-29T12:42:50.260Z,8.25
2023-01-29T12:45:20.759Z,8.27
2023-01-29T12:47:53.914Z,8.20
2023-01-29T12:50:25.116Z,8.90
2023-01-29T12:53:14.719Z,9.02
2023-01-29T12:55:55.510Z,8.25
2023-01-29T12:58:43.252Z,8.20
2023-01-29T13:01:17.158Z,8.10
2023-01-29T13:03:53.546Z,8.80
2023-01-29T13:06:30.306Z,8.52
2023-01-29T13:09:04.375Z,8.45
2023-01-29T13:11:44.259Z,8.75
2023-01-29T13:14:50.224Z,8.98
2023-01-29T13:17:37.695Z,8.43
2023-01-29T13:20:18.104Z,7.55
2023-01-29T13:22:48.036Z,8.20
2023-01-29T13:25:16.974Z,8.63
2023-01-29T13:27:45.818Z,8.23
2023-01-29T13:30:36.442Z,8.30
2023-01-29T13:33:11.785Z,9.18
2023-01-29T13:35:43.771Z,7.65
2023-01-29T13:38:26.906Z,8.07
2023-01-29T13:40:58.296Z,8.07
2023-01-29T13:43:25.185Z,8.27
2023-01-29T13:45:53.970Z,8.27
2023-01-29T13:48:29.510Z,8.32
2023-01-29T13:51:01.057Z,8.55
2023-01-29T13:53:33.577Z,7.97
2023-01-29T13:56:35.321Z,7.75
2023-01-29T13:59:05.392Z,7.93
2023-01-29T14:01:47.327Z,7.57
2023-01-29T14:04:22.560Z,8.57
2023-01-29T14:06:52.436Z,8.25
2023-01-29T14:09:37.244Z,8.15
2023-01-29T14:12:24.443Z,7.95
2023-01-29T14:14:57.135Z,8.15
2023-01-29T14:17:26.747Z,8.02
2023-01-29T14:19:59.333Z,7.85
2023-01-29T14:22:30.247Z,7.00
2023-01-29T14:25:01.672Z,7.30
2023-01-29T14:27:29.364Z,7.20
2023-01-29T14:30:01.798Z,7.93
2023-01-29T14:32:29.290Z,7.68
2023-01-29T14:35:18.245Z,7.70
2023-01-29T14:37:47.966Z,8.20
2023-01-29T14:40:21.753Z,8.43
2023-01-29T14:43:03.952Z,7.53
2023-01-29T14:45:36.448Z,8.50
2023-01-29T14:48:03.050Z,8.23
2023-01-29T14:50:31.626Z,8.15
2023-01-29T14:53:16.219Z,8.27
2023-01-29T14:55:50.322Z,8.00
2023-01-29T14:58:22.094Z,7.93
2023-01-29T15:00:53.291Z,7.18
2023-01-29T15:03:29.568Z,8.77
2023-01-29T15:05:59.404Z,8.07
2023-01-29T15:08:38.290Z,7.72
2023-01-29T15:11:30.876Z,8.88
2023-01-29T15:14:17.982Z,8.63
2023-01-29T15:17:09.919Z,8.23
2023-01-29T15:19:48.385Z,8.38
2023-01-29T15:22:21.737Z,8.50
2023-01-29T15:25:04.084Z,8.52
2023-01-29T15:27:31.159Z,8.85
2023-01-29T15:30:01.170Z,8.32
2023-01-29T15:32:37.975Z,9.45
2023-01-29T15:35:38.378Z,8.10
2023-01-29T15:38:18.228Z,8.27
2023-01-29T15:41:15.360Z,8.25
2023-01-29T15:43:48.411Z,8.70
2023-01-29T15:46:32.619Z,7.90
2023-01-29T15:49:06.389Z,8.48
2023-01-29T15:51:33.611Z,8.60
2023-01-29T15:54:03.462Z,8.48
2023-01-29T15:56:36.242Z,9.52
2023-01-29T15:59:09.678Z,8.30
2023-01-29T16:01:36.714Z,8.40
2023-01-29T16:04:04.274Z,9.05
2023-01-29T16:06:37.790Z,9.23
2023-01-29T16:09:05.879Z,8.63
2023-01-29T16:11:34.022Z,9.27
2023-01-29T16:14:02.747Z,9.15
2023-01-29T16:16:29.548Z,8.70
2023-01-29T16:19:01.030Z,8.38
2023-01-29T16:21:36.316Z,9.70
2023-01-29T16:24:11.639Z,9.45
2023-01-29T16:26:43.227Z,8.95
2023-01-29T16:29:13.020Z,9.75
2023-01-29T16:31:41.907Z,10.57
2023-01-29T16:34:28.961Z,8.85
2023-01-29T16:36:56.260Z,8.70
2023-01-29T16:39:36.034Z,9.63
2023-01-29T16:42:20.221Z,9.00
2023-01-29T16:44:51.616Z,10.70
2023-01-29T16:47:24.054Z,10.18
2023-01-29T16:49:53.635Z,9.95
2023-01-29T16:52:29.587Z,9.70
2023-01-29T16:55:01.937Z,9.80
2023-01-29T16:57:33.650Z,8.85
2023-01-29T17:00:03.517Z,10.10
2023-01-29T17:02:38.396Z,10.52
2023-01-29T17:05:09.530Z,10.38
2023-01-29T17:07:37.055Z,11.02
2023-01-29T17:10:06.392Z,11.25
2023-01-29T17:12:34.084Z,10.68
2023-01-29T17:15:04.557Z,11.23
2023-01-29T17:17:33.510Z,9.85
2023-01-29T17:20:16.811Z,10.50
2023-01-29T17:22:44.718Z,9.80
2023-01-29T17:25:15.384Z,10.70
2023-01-29T17:27:44.193Z,10.00
2023-01-29T17:30:23.579Z,11.82
2023-01-29T17:32:50.299Z,10.73
2023-01-29T17:35:17.902Z,10.75
2023-01-29T17:37:45.109Z,10.23
2023-01-29T17:40:25.773Z,13.48
2023-01-29T17:42:52.479Z,12.52
2023-01-29T17:45:19.474Z,11.65
2023-01-29T17:47:46.439Z,11.20
2023-01-29T17:50:23.608Z,13.15
2023-01-29T17:52:50.739Z,11.55
2023-01-29T17:55:17.661Z,10.45
2023-01-29T17:57:44.620Z,11.70
2023-01-29T18:00:23.093Z,10.85
2023-01-29T18:02:49.989Z,10.82
2023-01-29T18:05:18.058Z,10.80
2023-01-29T18:07:46.863Z,11.45
2023-01-29T18:10:17.451Z,10.77
2023-01-29T18:12:44.359Z,10.48
2023-01-29T18:15:11.509Z,12.20
2023-01-29T18:17:39.211Z,11.95
2023-01-29T18:20:21.722Z,11.45
2023-01-29T18:22:48.541Z,11.65
2023-01-29T18:25:16.262Z,11.60
2023-01-29T18:27:43.280Z,12.18
2023-01-29T18:30:11.131Z,13.18
2023-01-29T18:32:38.069Z,11.65
2023-01-29T18:35:07.967Z,11.43
2023-01-29T18:37:35.221Z,12.80
2023-01-29T18:40:01.861Z,11.85
2023-01-29T18:42:35.917Z,11.65
2023-01-29T18:45:03.743Z,12.25
2023-01-29T18:47:30.506Z,13.88
2023-01-29T18:49:57.193Z,11.65
2023-01-29T18:52:23.900Z,12.55
2023-01-29T18:54:50.525Z,12.50
2023-01-29T18:57:17.200Z,11.10
2023-01-29T19:00:04.528Z,11.45
2023-01-29T19:02:31.360Z,12.73
2023-01-29T19:04:58.015Z,14.10
2023-01-29T19:07:24.667Z,11.25
2023-01-29T19:09:51.332Z,12.13
2023-01-29T19:12:18.159Z,12.98
2023-01-29T19:14:44.778Z,11.98
2023-01-29T19:17:11.460Z,11.48
2023-01-29T19:19:38.078Z,14.57
2023-01-29T19:22:04.714Z,12.55
2023-01-29T19:24:36.234Z,12.68
2023-01-29T19:27:02.931Z,12.30
2023-01-29T19:29:29.676Z,12.48
2023-01-29T19:31:56.284Z,12.23
2023-01-29T19:34:23.020Z,11.70
2023-01-29T19:36:49.910Z,12.80
2023-01-29T19:39:16.667Z,13.50
2023-01-29T19:41:43.380Z,12.05
2023-01-29T19:44:11.340Z,11.75
2023-01-29T19:46:39.005Z,12.43
2023-01-29T19:49:06.665Z,12.63
2023-01-29T19:51:33.331Z,13.18
2023-01-29T19:53:59.946Z,13.20
2023-01-29T19:56:26.588Z,11.60
2023-01-29T19:58:57.171Z,13.23
2023-01-29T20:01:24.861Z,11.40
2023-01-29T20:03:51.910Z,12.10
2023-01-29T20:06:21.993Z,11.52
2023-01-29T20:08:48.696Z,11.18
2023-01-29T20:11:17.007Z,12.70
2023-01-29T20:13:45.962Z,12.05
2023-01-29T20:16:12.667Z,12.50
2023-01-29T20:18:39.381Z,12.00
2023-01-29T20:21:12.237Z,11.88
2023-01-29T20:23:39.899Z,12.38
2023-01-29T20:26:09.610Z,11.88
2023-01-29T20:28:36.590Z,12.25
2023-01-29T20:31:04.424Z,13.38
2023-01-29T20:33:31.953Z,11.77
2023-01-29T20:36:00.660Z,12.57
2023-01-29T20:38:30.425Z,13.05
2023-01-29T20:41:09.068Z,12.10
2023-01-29T20:43:36.191Z,13.23
2023-01-29T20:46:03.833Z,12.98
2023-01-29T20:48:31.323Z,13.30
2023-01-29T20:51:08.002Z,14.30
2023-01-29T20:53:34.937Z,15.93
2023-01-29T20:56:04.334Z,13.13
2023-01-29T20:58:31.685Z,13.73
2023-01-29T21:00:58.385Z,12.45
2023-01-29T21:03:25.464Z,15.00
2023-01-29T21:05:52.386Z,15.35
2023-01-29T21:08:19.046Z,13.68
2023-01-29T21:10:45.860Z,14.43
2023-01-29T21:13:12.697Z,13.85
2023-01-29T21:15:41.364Z,12.65
2023-01-29T21:18:08.011Z,13.30
2023-01-29T21:20:34.703Z,13.95
2023-01-29T21:23:04.205Z,13.32
2023-01-29T21:25:32.646Z,12.85
2023-01-29T21:27:59.435Z,12.40
2023-01-29T21:30:26.981Z,12.70
2023-01-29T21:32:53.739Z,13.30
2023-01-29T21:35:20.405Z,13.27
2023-01-29T21:37:47.030Z,12.80
2023-01-29T21:40:13.934Z,12.70
2023-01-29T21:42:59.077Z,13.70
2023-01-29T21:45:25.732Z,13.13
2023-01-29T21:47:52.512Z,12.35
2023-01-29T21:50:19.510Z,13.35
2023-01-29T21:52:46.414Z,14.90
2023-01-29T21:55:13.118Z,13.20
2023-01-29T21:57:42.675Z,13.05
2023-01-29T22:00:11.847Z,13.50
2023-01-29T22:02:38.682Z,13.77
2023-01-29T22:05:18.059Z,14.10
2023-01-29T22:07:45.868Z,13.93
2023-01-29T22:10:12.904Z,14.77
2023-01-29T22:12:40.026Z,14.40
2023-01-29T22:15:07.849Z,13.27
2023-01-29T22:17:35.298Z,12.75
2023-01-29T22:20:02.132Z,13.50
2023-01-29T22:22:28.769Z,13.32
2023-01-29T22:24:56.458Z,13.48
2023-01-29T22:27:23.304Z,12.27
2023-01-29T22:29:49.921Z,14.07
2023-01-29T22:32:16.659Z,13.23
2023-01-29T22:34:43.313Z,13.80
2023-01-29T22:37:09.951Z,13.02
2023-01-29T22:39:36.553Z,13.00
2023-01-29T22:42:03.365Z,13.40
2023-01-29T22:44:30.106Z,13.30
2023-01-29T22:46:56.800Z,14.18
2023-01-29T22:49:25.092Z,13.02
2023-01-29T22:52:09.842Z,13.75
2023-01-29T22:54:41.034Z,14.00
2023-01-29T22:57:12.874Z,13.32
2023-01-29T22:59:39.919Z,13.10
2023-01-29T23:02:07.734Z,13.68
2023-01-29T23:04:34.391Z,14.43
2023-01-29T23:07:01.060Z,13.35
2023-01-29T23:09:27.881Z,13.57
2023-01-29T23:11:54.543Z,14.50
2023-01-29T23:14:21.349Z,12.50
2023-01-29T23:16:47.975Z,13.23
2023-01-29T23:19:14.622Z,14.40
2023-01-29T23:21:41.281Z,14.20
2023-01-29T23:24:08.861Z,13.50
2023-01-29T23:26:54.232Z,13.63
2023-01-29T23:29:21.124Z,13.88
2023-01-29T23:31:47.993Z,13.32
2023-01-29T23:34:15.140Z,13.93
2023-01-29T23:36:42.398Z,13.15
2023-01-29T23:39:09.158Z,13.68
2023-01-29T23:41:36.036Z,14.02
2023-01-29T23:44:02.726Z,13.68
2023-01-29T23:46:29.499Z,16.23
2023-01-29T23:48:56.150Z,13.73
2023-01-29T23:51:22.832Z,13.85
2023-01-29T23:53:49.468Z,12.88
2023-01-29T23:56:16.108Z,13.40
2023-01-29T23:58:42.791Z,12.88
